sensor_id;sensor_type;location;lat;lon;timestamp;temperature;humidity
24448;DHT22;13348;50.984;5.822;2024-02-21T00:00:11;8.80;99.90
24448;DHT22;13348;50.984;5.822;2024-02-21T00:02:38;8.80;99.90
24448;DHT22;13348;50.984;5.822;2024-02-21T00:05:06;8.90;99.90
24448;DHT22;13348;50.984;5.822;2024-02-21T00:07:33;8.90;99.90
24448;DHT22;13348;50.984;5.822;2024-02-21T00:10:00;9.00;99.90
24448;DHT22;13348;50.984;5.822;2024-02-21T00:12:28;9.00;99.90
24448;DHT22;13348;50.984;5.822;2024-02-21T00:14:55;8.90;99.90
24448;DHT22;13348;50.984;5.822;2024-02-21T00:17:22;8.90;99.90
24448;DHT22;13348;50.984;5.822;2024-02-21T00:19:51;8.90;99.90
24448;DHT22;13348;50.984;5.822;2024-02-21T00:22:18;8.90;99.90
24448;DHT22;13348;50.984;5.822;2024-02-21T00:24:45;8.90;99.90
24448;DHT22;13348;50.984;5.822;2024-02-21T00:27:12;9.00;99.90
24448;DHT22;13348;50.984;5.822;2024-02-21T00:29:40;8.90;99.90
24448;DHT22;13348;50.984;5.822;2024-02-21T00:32:07;8.90;99.90
24448;DHT22;13348;50.984;5.822;2024-02-21T00:34:34;8.90;99.90
24448;DHT22;13348;50.984;5.822;2024-02-21T00:37:01;8.80;99.90
24448;DHT22;13348;50.984;5.822;2024-02-21T00:39:28;8.80;99.90
24448;DHT22;13348;50.984;5.822;2024-02-21T00:41:55;8.80;99.90
24448;DHT22;13348;50.984;5.822;2024-02-21T00:44:22;8.90;99.90
24448;DHT22;13348;50.984;5.822;2024-02-21T00:46:51;8.90;99.90
24448;DHT22;13348;50.984;5.822;2024-02-21T00:49:18;8.90;99.90
24448;DHT22;13348;50.984;5.822;2024-02-21T00:51:45;8.90;99.90
24448;DHT22;13348;50.984;5.822;2024-02-21T00:54:11;8.80;99.90
24448;DHT22;13348;50.984;5.822;2024-02-21T00:56:39;8.90;99.90
24448;DHT22;13348;50.984;5.822;2024-02-21T00:59:05;8.90;99.90
24448;DHT22;13348;50.984;5.822;2024-02-21T01:01:32;8.90;99.90
24448;DHT22;13348;50.984;5.822;2024-02-21T01:04:01;8.80;99.90
24448;DHT22;13348;50.984;5.822;2024-02-21T01:06:28;8.80;99.90
24448;DHT22;13348;50.984;5.822;2024-02-21T01:08:54;8.80;99.90
24448;DHT22;13348;50.984;5.822;2024-02-21T01:11:21;8.80;99.90
24448;DHT22;13348;50.984;5.822;2024-02-21T01:13:48;8.80;99.90
24448;DHT22;13348;50.984;5.822;2024-02-21T01:16:15;8.80;99.90
24448;DHT22;13348;50.984;5.822;2024-02-21T01:18:42;8.80;99.90
24448;DHT22;13348;50.984;5.822;2024-02-21T01:21:11;8.80;99.90
24448;DHT22;13348;50.984;5.822;2024-02-21T01:23:37;8.80;99.90
24448;DHT22;13348;50.984;5.822;2024-02-21T01:26:04;8.80;99.90
24448;DHT22;13348;50.984;5.822;2024-02-21T01:28:33;8.80;99.90
24448;DHT22;13348;50.984;5.822;2024-02-21T01:31:00;8.90;99.90
24448;DHT22;13348;50.984;5.822;2024-02-21T01:33:27;8.80;99.90
24448;DHT22;13348;50.984;5.822;2024-02-21T01:36:00;8.80;99.90
24448;DHT22;13348;50.984;5.822;2024-02-21T01:38:29;8.80;99.90
24448;DHT22;13348;50.984;5.822;2024-02-21T01:40:57;8.70;99.90
24448;DHT22;13348;50.984;5.822;2024-02-21T01:43:24;8.70;99.90
24448;DHT22;13348;50.984;5.822;2024-02-21T01:45:52;8.70;99.90
24448;DHT22;13348;50.984;5.822;2024-02-21T01:48:19;8.70;99.90
24448;DHT22;13348;50.984;5.822;2024-02-21T01:50:46;8.60;99.90
24448;DHT22;13348;50.984;5.822;2024-02-21T01:53:13;8.60;99.90
24448;DHT22;13348;50.984;5.822;2024-02-21T01:55:45;8.70;99.90
24448;DHT22;13348;50.984;5.822;2024-02-21T01:58:13;8.60;99.90
24448;DHT22;13348;50.984;5.822;2024-02-21T02:00:40;8.60;99.90
24448;DHT22;13348;50.984;5.822;2024-02-21T02:03:09;8.70;99.90
24448;DHT22;13348;50.984;5.822;2024-02-21T02:05:35;8.70;99.90
24448;DHT22;13348;50.984;5.822;2024-02-21T02:08:02;8.80;99.90
24448;DHT22;13348;50.984;5.822;2024-02-21T02:10:29;8.70;99.90
24448;DHT22;13348;50.984;5.822;2024-02-21T02:12:58;8.80;99.90
24448;DHT22;13348;50.984;5.822;2024-02-21T02:15:25;8.90;99.90
24448;DHT22;13348;50.984;5.822;2024-02-21T02:17:52;8.90;99.90
24448;DHT22;13348;50.984;5.822;2024-02-21T02:20:19;8.80;99.90
24448;DHT22;13348;50.984;5.822;2024-02-21T02:22:45;8.80;99.90
24448;DHT22;13348;50.984;5.822;2024-02-21T02:25:15;8.70;99.90
24448;DHT22;13348;50.984;5.822;2024-02-21T02:27:42;8.70;99.90
24448;DHT22;13348;50.984;5.822;2024-02-21T02:30:11;8.70;99.90
24448;DHT22;13348;50.984;5.822;2024-02-21T02:32:38;8.70;99.90
24448;DHT22;13348;50.984;5.822;2024-02-21T02:35:05;8.80;99.90
24448;DHT22;13348;50.984;5.822;2024-02-21T02:37:32;8.80;99.90
24448;DHT22;13348;50.984;5.822;2024-02-21T02:39:59;8.70;99.90
24448;DHT22;13348;50.984;5.822;2024-02-21T02:42:27;8.80;99.90
24448;DHT22;13348;50.984;5.822;2024-02-21T02:44:54;8.70;99.90
24448;DHT22;13348;50.984;5.822;2024-02-21T02:47:22;8.70;99.90
24448;DHT22;13348;50.984;5.822;2024-02-21T02:49:50;8.70;99.90
24448;DHT22;13348;50.984;5.822;2024-02-21T02:52:17;8.60;99.90
24448;DHT22;13348;50.984;5.822;2024-02-21T02:54:45;8.70;99.90
24448;DHT22;13348;50.984;5.822;2024-02-21T02:57:17;8.70;99.90
24448;DHT22;13348;50.984;5.822;2024-02-21T02:59:48;8.60;99.90
24448;DHT22;13348;50.984;5.822;2024-02-21T03:02:15;8.70;99.90
24448;DHT22;13348;50.984;5.822;2024-02-21T03:04:42;8.60;99.90
24448;DHT22;13348;50.984;5.822;2024-02-21T03:07:10;8.60;99.90
24448;DHT22;13348;50.984;5.822;2024-02-21T03:09:37;8.60;99.90
24448;DHT22;13348;50.984;5.822;2024-02-21T03:12:05;8.60;99.90
24448;DHT22;13348;50.984;5.822;2024-02-21T03:14:32;8.60;99.90
24448;DHT22;13348;50.984;5.822;2024-02-21T03:17:01;8.70;99.90
24448;DHT22;13348;50.984;5.822;2024-02-21T03:19:28;8.60;99.90
24448;DHT22;13348;50.984;5.822;2024-02-21T03:21:55;8.60;99.90
24448;DHT22;13348;50.984;5.822;2024-02-21T03:24:22;8.60;99.90
24448;DHT22;13348;50.984;5.822;2024-02-21T03:26:49;8.60;99.90
24448;DHT22;13348;50.984;5.822;2024-02-21T03:29:16;8.60;99.90
24448;DHT22;13348;50.984;5.822;2024-02-21T03:31:43;8.60;99.90
24448;DHT22;13348;50.984;5.822;2024-02-21T03:34:11;8.60;99.90
24448;DHT22;13348;50.984;5.822;2024-02-21T03:36:38;8.50;99.90
24448;DHT22;13348;50.984;5.822;2024-02-21T03:39:05;8.50;99.90
24448;DHT22;13348;50.984;5.822;2024-02-21T03:41:33;8.50;99.90
24448;DHT22;13348;50.984;5.822;2024-02-21T03:44:00;8.50;99.90
24448;DHT22;13348;50.984;5.822;2024-02-21T03:46:27;8.50;99.90
24448;DHT22;13348;50.984;5.822;2024-02-21T03:48:54;8.50;99.90
24448;DHT22;13348;50.984;5.822;2024-02-21T03:51:23;8.50;99.90
24448;DHT22;13348;50.984;5.822;2024-02-21T03:53:50;8.60;99.90
24448;DHT22;13348;50.984;5.822;2024-02-21T03:56:17;8.60;99.90
24448;DHT22;13348;50.984;5.822;2024-02-21T03:58:44;8.60;99.90
24448;DHT22;13348;50.984;5.822;2024-02-21T04:01:11;8.50;99.90
24448;DHT22;13348;50.984;5.822;2024-02-21T04:03:38;8.50;99.90
24448;DHT22;13348;50.984;5.822;2024-02-21T04:06:06;8.50;99.90
24448;DHT22;13348;50.984;5.822;2024-02-21T04:08:34;8.50;99.90
24448;DHT22;13348;50.984;5.822;2024-02-21T04:11:01;8.50;99.90
24448;DHT22;13348;50.984;5.822;2024-02-21T04:13:28;8.50;99.90
24448;DHT22;13348;50.984;5.822;2024-02-21T04:15:55;8.50;99.90
24448;DHT22;13348;50.984;5.822;2024-02-21T04:18:22;8.50;99.90
24448;DHT22;13348;50.984;5.822;2024-02-21T04:20:50;8.60;99.90
24448;DHT22;13348;50.984;5.822;2024-02-21T04:23:17;8.60;99.90
24448;DHT22;13348;50.984;5.822;2024-02-21T04:25:45;8.50;99.90
24448;DHT22;13348;50.984;5.822;2024-02-21T04:28:12;8.60;99.90
24448;DHT22;13348;50.984;5.822;2024-02-21T04:30:39;8.60;99.90
24448;DHT22;13348;50.984;5.822;2024-02-21T04:33:06;8.60;99.90
24448;DHT22;13348;50.984;5.822;2024-02-21T04:35:34;8.60;99.90
24448;DHT22;13348;50.984;5.822;2024-02-21T04:38:02;8.60;99.90
24448;DHT22;13348;50.984;5.822;2024-02-21T04:40:29;8.60;99.90
24448;DHT22;13348;50.984;5.822;2024-02-21T04:42:58;8.50;99.90
24448;DHT22;13348;50.984;5.822;2024-02-21T04:45:25;8.50;99.90
24448;DHT22;13348;50.984;5.822;2024-02-21T04:47:51;8.50;99.90
24448;DHT22;13348;50.984;5.822;2024-02-21T04:50:19;8.50;99.90
24448;DHT22;13348;50.984;5.822;2024-02-21T04:52:46;8.50;99.90
24448;DHT22;13348;50.984;5.822;2024-02-21T04:55:13;8.50;99.90
24448;DHT22;13348;50.984;5.822;2024-02-21T04:57:40;8.50;99.90
24448;DHT22;13348;50.984;5.822;2024-02-21T05:00:09;8.50;99.90
24448;DHT22;13348;50.984;5.822;2024-02-21T05:02:37;8.50;99.90
24448;DHT22;13348;50.984;5.822;2024-02-21T05:05:04;8.50;99.90
24448;DHT22;13348;50.984;5.822;2024-02-21T05:07:31;8.40;99.90
24448;DHT22;13348;50.984;5.822;2024-02-21T05:09:58;8.40;99.90
24448;DHT22;13348;50.984;5.822;2024-02-21T05:12:25;8.50;99.90
24448;DHT22;13348;50.984;5.822;2024-02-21T05:14:52;8.50;99.90
24448;DHT22;13348;50.984;5.822;2024-02-21T05:17:20;8.50;99.90
24448;DHT22;13348;50.984;5.822;2024-02-21T05:19:47;8.50;99.90
24448;DHT22;13348;50.984;5.822;2024-02-21T05:22:14;8.40;99.90
24448;DHT22;13348;50.984;5.822;2024-02-21T05:24:41;8.40;99.90
24448;DHT22;13348;50.984;5.822;2024-02-21T05:27:08;8.50;99.90
24448;DHT22;13348;50.984;5.822;2024-02-21T05:29:35;8.40;99.90
24448;DHT22;13348;50.984;5.822;2024-02-21T05:32:02;8.50;99.90
24448;DHT22;13348;50.984;5.822;2024-02-21T05:34:31;8.50;99.90
24448;DHT22;13348;50.984;5.822;2024-02-21T05:36:57;8.50;99.90
24448;DHT22;13348;50.984;5.822;2024-02-21T05:39:26;8.50;99.90
24448;DHT22;13348;50.984;5.822;2024-02-21T05:41:54;8.40;99.90
24448;DHT22;13348;50.984;5.822;2024-02-21T05:44:21;8.40;99.90
24448;DHT22;13348;50.984;5.822;2024-02-21T05:46:48;8.50;99.90
24448;DHT22;13348;50.984;5.822;2024-02-21T05:49:15;8.40;99.90
24448;DHT22;13348;50.984;5.822;2024-02-21T05:51:44;8.40;99.90
24448;DHT22;13348;50.984;5.822;2024-02-21T05:54:10;8.40;99.90
24448;DHT22;13348;50.984;5.822;2024-02-21T05:56:37;8.40;99.90
24448;DHT22;13348;50.984;5.822;2024-02-21T05:59:04;8.40;99.90
24448;DHT22;13348;50.984;5.822;2024-02-21T06:01:31;8.40;99.90
24448;DHT22;13348;50.984;5.822;2024-02-21T06:03:58;8.40;99.90
24448;DHT22;13348;50.984;5.822;2024-02-21T06:06:25;8.40;99.90
24448;DHT22;13348;50.984;5.822;2024-02-21T06:08:54;8.40;99.90
24448;DHT22;13348;50.984;5.822;2024-02-21T06:11:21;8.40;99.90
24448;DHT22;13348;50.984;5.822;2024-02-21T06:13:48;8.30;99.90
24448;DHT22;13348;50.984;5.822;2024-02-21T06:16:15;8.30;99.90
24448;DHT22;13348;50.984;5.822;2024-02-21T06:18:42;8.20;99.90
24448;DHT22;13348;50.984;5.822;2024-02-21T06:21:09;8.20;99.90
24448;DHT22;13348;50.984;5.822;2024-02-21T06:23:37;8.20;99.90
24448;DHT22;13348;50.984;5.822;2024-02-21T06:26:05;8.30;99.90
24448;DHT22;13348;50.984;5.822;2024-02-21T06:28:32;8.30;99.90
24448;DHT22;13348;50.984;5.822;2024-02-21T06:30:59;8.20;99.90
24448;DHT22;13348;50.984;5.822;2024-02-21T06:33:26;8.20;99.90
24448;DHT22;13348;50.984;5.822;2024-02-21T06:35:53;8.20;99.90
24448;DHT22;13348;50.984;5.822;2024-02-21T06:38:20;8.20;99.90
24448;DHT22;13348;50.984;5.822;2024-02-21T06:40:47;8.20;99.90
24448;DHT22;13348;50.984;5.822;2024-02-21T06:43:19;8.20;99.90
24448;DHT22;13348;50.984;5.822;2024-02-21T06:45:47;8.20;99.90
24448;DHT22;13348;50.984;5.822;2024-02-21T06:48:16;8.30;99.90
24448;DHT22;13348;50.984;5.822;2024-02-21T06:50:44;8.30;99.90
24448;DHT22;13348;50.984;5.822;2024-02-21T06:53:11;8.30;99.90
24448;DHT22;13348;50.984;5.822;2024-02-21T06:55:38;8.40;99.90
24448;DHT22;13348;50.984;5.822;2024-02-21T06:58:05;8.40;99.90
24448;DHT22;13348;50.984;5.822;2024-02-21T07:00:38;8.30;99.90
24448;DHT22;13348;50.984;5.822;2024-02-21T07:03:05;8.30;99.90
24448;DHT22;13348;50.984;5.822;2024-02-21T07:05:32;8.30;99.90
24448;DHT22;13348;50.984;5.822;2024-02-21T07:07:59;8.30;99.90
24448;DHT22;13348;50.984;5.822;2024-02-21T07:10:26;8.30;99.90
24448;DHT22;13348;50.984;5.822;2024-02-21T07:12:54;8.30;99.90
24448;DHT22;13348;50.984;5.822;2024-02-21T07:15:21;8.30;99.90
24448;DHT22;13348;50.984;5.822;2024-02-21T07:17:53;8.30;99.90
24448;DHT22;13348;50.984;5.822;2024-02-21T07:20:20;8.30;99.90
24448;DHT22;13348;50.984;5.822;2024-02-21T07:22:47;8.30;99.90
24448;DHT22;13348;50.984;5.822;2024-02-21T07:25:14;8.20;99.90
24448;DHT22;13348;50.984;5.822;2024-02-21T07:27:42;8.20;99.90
24448;DHT22;13348;50.984;5.822;2024-02-21T07:30:09;8.20;99.90
24448;DHT22;13348;50.984;5.822;2024-02-21T07:32:36;8.20;99.90
24448;DHT22;13348;50.984;5.822;2024-02-21T07:35:05;8.20;99.90
24448;DHT22;13348;50.984;5.822;2024-02-21T07:37:36;8.20;99.90
24448;DHT22;13348;50.984;5.822;2024-02-21T07:40:03;8.20;99.90
24448;DHT22;13348;50.984;5.822;2024-02-21T07:42:30;8.30;99.90
24448;DHT22;13348;50.984;5.822;2024-02-21T07:44:57;8.30;99.90
24448;DHT22;13348;50.984;5.822;2024-02-21T07:47:24;8.30;99.90
24448;DHT22;13348;50.984;5.822;2024-02-21T07:49:51;8.30;99.90
24448;DHT22;13348;50.984;5.822;2024-02-21T07:52:20;8.30;99.90
24448;DHT22;13348;50.984;5.822;2024-02-21T07:54:47;8.30;99.90
24448;DHT22;13348;50.984;5.822;2024-02-21T07:57:14;8.30;99.90
24448;DHT22;13348;50.984;5.822;2024-02-21T07:59:41;8.40;99.90
24448;DHT22;13348;50.984;5.822;2024-02-21T08:02:08;8.30;99.90
24448;DHT22;13348;50.984;5.822;2024-02-21T08:04:35;8.30;99.90
24448;DHT22;13348;50.984;5.822;2024-02-21T08:07:02;8.30;99.90
24448;DHT22;13348;50.984;5.822;2024-02-21T08:09:31;8.30;99.90
24448;DHT22;13348;50.984;5.822;2024-02-21T08:11:58;8.30;99.90
24448;DHT22;13348;50.984;5.822;2024-02-21T08:14:25;8.40;99.90
24448;DHT22;13348;50.984;5.822;2024-02-21T08:16:52;8.40;99.90
24448;DHT22;13348;50.984;5.822;2024-02-21T08:19:20;8.40;99.90
24448;DHT22;13348;50.984;5.822;2024-02-21T08:21:47;8.40;99.90
24448;DHT22;13348;50.984;5.822;2024-02-21T08:24:14;8.40;99.90
24448;DHT22;13348;50.984;5.822;2024-02-21T08:26:43;8.40;99.90
24448;DHT22;13348;50.984;5.822;2024-02-21T08:29:11;8.50;99.90
24448;DHT22;13348;50.984;5.822;2024-02-21T08:31:38;8.50;99.90
24448;DHT22;13348;50.984;5.822;2024-02-21T08:34:05;8.50;99.90
24448;DHT22;13348;50.984;5.822;2024-02-21T08:36:32;8.50;99.90
24448;DHT22;13348;50.984;5.822;2024-02-21T08:39:00;8.50;99.90
24448;DHT22;13348;50.984;5.822;2024-02-21T08:41:30;8.60;99.90
24448;DHT22;13348;50.984;5.822;2024-02-21T08:43:58;8.60;99.90
24448;DHT22;13348;50.984;5.822;2024-02-21T08:46:25;8.60;99.90
24448;DHT22;13348;50.984;5.822;2024-02-21T08:48:52;8.60;99.90
24448;DHT22;13348;50.984;5.822;2024-02-21T08:51:20;8.60;99.90
24448;DHT22;13348;50.984;5.822;2024-02-21T08:53:47;8.60;99.90
24448;DHT22;13348;50.984;5.822;2024-02-21T08:56:14;8.60;99.90
24448;DHT22;13348;50.984;5.822;2024-02-21T08:58:41;8.70;99.90
24448;DHT22;13348;50.984;5.822;2024-02-21T09:01:10;8.80;99.90
24448;DHT22;13348;50.984;5.822;2024-02-21T09:03:37;8.80;99.90
24448;DHT22;13348;50.984;5.822;2024-02-21T09:06:04;8.90;99.90
24448;DHT22;13348;50.984;5.822;2024-02-21T09:08:31;8.90;99.90
24448;DHT22;13348;50.984;5.822;2024-02-21T09:10:59;8.90;99.90
24448;DHT22;13348;50.984;5.822;2024-02-21T09:13:26;8.90;99.90
24448;DHT22;13348;50.984;5.822;2024-02-21T09:15:54;9.00;99.90
24448;DHT22;13348;50.984;5.822;2024-02-21T09:18:22;9.00;99.90
24448;DHT22;13348;50.984;5.822;2024-02-21T09:20:49;9.00;99.90
24448;DHT22;13348;50.984;5.822;2024-02-21T09:23:16;9.10;99.90
24448;DHT22;13348;50.984;5.822;2024-02-21T09:25:45;9.10;99.90
24448;DHT22;13348;50.984;5.822;2024-02-21T09:28:12;9.10;99.90
24448;DHT22;13348;50.984;5.822;2024-02-21T09:30:39;9.20;99.90
24448;DHT22;13348;50.984;5.822;2024-02-21T09:33:06;9.20;99.90
24448;DHT22;13348;50.984;5.822;2024-02-21T09:35:35;9.20;99.90
24448;DHT22;13348;50.984;5.822;2024-02-21T09:38:02;9.20;99.90
24448;DHT22;13348;50.984;5.822;2024-02-21T09:40:29;9.20;99.90
24448;DHT22;13348;50.984;5.822;2024-02-21T09:43:00;9.30;99.90
24448;DHT22;13348;50.984;5.822;2024-02-21T09:45:29;9.30;99.90
24448;DHT22;13348;50.984;5.822;2024-02-21T09:47:58;9.40;99.90
24448;DHT22;13348;50.984;5.822;2024-02-21T09:50:28;9.40;99.90
24448;DHT22;13348;50.984;5.822;2024-02-21T09:52:58;9.40;99.90
24448;DHT22;13348;50.984;5.822;2024-02-21T09:55:25;9.40;99.90
24448;DHT22;13348;50.984;5.822;2024-02-21T09:57:53;9.40;99.90
24448;DHT22;13348;50.984;5.822;2024-02-21T10:00:20;9.50;99.90
24448;DHT22;13348;50.984;5.822;2024-02-21T10:02:48;9.60;99.90
24448;DHT22;13348;50.984;5.822;2024-02-21T10:05:15;9.60;99.90
24448;DHT22;13348;50.984;5.822;2024-02-21T10:07:43;9.60;99.90
24448;DHT22;13348;50.984;5.822;2024-02-21T10:10:11;9.60;99.90
24448;DHT22;13348;50.984;5.822;2024-02-21T10:12:47;9.60;99.90
24448;DHT22;13348;50.984;5.822;2024-02-21T10:15:19;9.60;99.90
24448;DHT22;13348;50.984;5.822;2024-02-21T10:17:46;9.60;99.90
24448;DHT22;13348;50.984;5.822;2024-02-21T10:20:13;9.80;99.90
24448;DHT22;13348;50.984;5.822;2024-02-21T10:22:41;9.80;99.90
24448;DHT22;13348;50.984;5.822;2024-02-21T10:25:09;9.80;99.90
24448;DHT22;13348;50.984;5.822;2024-02-21T10:27:37;9.90;99.90
24448;DHT22;13348;50.984;5.822;2024-02-21T10:30:05;10.00;99.90
24448;DHT22;13348;50.984;5.822;2024-02-21T10:32:32;10.10;99.90
24448;DHT22;13348;50.984;5.822;2024-02-21T10:35:02;10.10;99.90
24448;DHT22;13348;50.984;5.822;2024-02-21T10:37:30;10.10;99.90
24448;DHT22;13348;50.984;5.822;2024-02-21T10:39:57;10.20;99.90
24448;DHT22;13348;50.984;5.822;2024-02-21T10:42:25;10.40;99.90
24448;DHT22;13348;50.984;5.822;2024-02-21T10:44:59;10.40;99.90
24448;DHT22;13348;50.984;5.822;2024-02-21T10:47:27;10.30;99.90
24448;DHT22;13348;50.984;5.822;2024-02-21T10:49:57;10.30;99.90
24448;DHT22;13348;50.984;5.822;2024-02-21T10:52:26;10.40;99.90
24448;DHT22;13348;50.984;5.822;2024-02-21T10:54:56;10.30;99.90
24448;DHT22;13348;50.984;5.822;2024-02-21T10:57:23;10.40;99.90
24448;DHT22;13348;50.984;5.822;2024-02-21T10:59:50;10.40;99.90
24448;DHT22;13348;50.984;5.822;2024-02-21T11:02:19;10.50;99.90
24448;DHT22;13348;50.984;5.822;2024-02-21T11:04:46;10.60;99.90
24448;DHT22;13348;50.984;5.822;2024-02-21T11:07:13;10.50;99.90
24448;DHT22;13348;50.984;5.822;2024-02-21T11:09:50;10.50;99.90
24448;DHT22;13348;50.984;5.822;2024-02-21T11:12:19;10.60;99.90
24448;DHT22;13348;50.984;5.822;2024-02-21T11:14:46;10.60;99.90
24448;DHT22;13348;50.984;5.822;2024-02-21T11:17:17;10.60;99.90
24448;DHT22;13348;50.984;5.822;2024-02-21T11:19:45;10.70;99.90
24448;DHT22;13348;50.984;5.822;2024-02-21T11:22:15;10.70;99.90
24448;DHT22;13348;50.984;5.822;2024-02-21T11:24:45;10.80;99.90
24448;DHT22;13348;50.984;5.822;2024-02-21T11:27:12;10.90;99.90
24448;DHT22;13348;50.984;5.822;2024-02-21T11:29:39;10.80;99.90
24448;DHT22;13348;50.984;5.822;2024-02-21T11:32:09;11.00;99.90
24448;DHT22;13348;50.984;5.822;2024-02-21T11:34:36;11.10;99.90
24448;DHT22;13348;50.984;5.822;2024-02-21T11:37:14;11.00;99.90
24448;DHT22;13348;50.984;5.822;2024-02-21T11:39:42;11.20;99.90
24448;DHT22;13348;50.984;5.822;2024-02-21T11:42:09;11.40;99.90
24448;DHT22;13348;50.984;5.822;2024-02-21T11:44:38;11.60;99.90
24448;DHT22;13348;50.984;5.822;2024-02-21T11:47:05;11.50;99.90
24448;DHT22;13348;50.984;5.822;2024-02-21T11:49:36;11.50;99.90
24448;DHT22;13348;50.984;5.822;2024-02-21T11:52:03;11.50;99.90
24448;DHT22;13348;50.984;5.822;2024-02-21T11:54:32;11.50;99.90
24448;DHT22;13348;50.984;5.822;2024-02-21T11:56:59;11.50;99.90
24448;DHT22;13348;50.984;5.822;2024-02-21T11:59:26;11.50;99.90
24448;DHT22;13348;50.984;5.822;2024-02-21T12:01:53;11.40;99.90
24448;DHT22;13348;50.984;5.822;2024-02-21T12:04:20;11.50;99.90
24448;DHT22;13348;50.984;5.822;2024-02-21T12:06:49;11.80;99.90
24448;DHT22;13348;50.984;5.822;2024-02-21T12:09:16;11.90;99.90
24448;DHT22;13348;50.984;5.822;2024-02-21T12:11:45;11.90;99.90
24448;DHT22;13348;50.984;5.822;2024-02-21T12:14:15;12.00;99.90
24448;DHT22;13348;50.984;5.822;2024-02-21T12:16:42;12.30;99.90
24448;DHT22;13348;50.984;5.822;2024-02-21T12:19:13;12.40;99.90
24448;DHT22;13348;50.984;5.822;2024-02-21T12:21:42;12.60;99.90
24448;DHT22;13348;50.984;5.822;2024-02-21T12:24:13;12.40;99.90
24448;DHT22;13348;50.984;5.822;2024-02-21T12:26:41;12.20;99.90
24448;DHT22;13348;50.984;5.822;2024-02-21T12:29:09;12.50;99.90
24448;DHT22;13348;50.984;5.822;2024-02-21T12:31:36;12.70;99.90
24448;DHT22;13348;50.984;5.822;2024-02-21T12:34:03;12.50;99.90
24448;DHT22;13348;50.984;5.822;2024-02-21T12:36:30;12.20;99.90
24448;DHT22;13348;50.984;5.822;2024-02-21T12:38:57;12.30;99.90
24448;DHT22;13348;50.984;5.822;2024-02-21T12:41:24;12.30;99.90
24448;DHT22;13348;50.984;5.822;2024-02-21T12:43:52;12.30;99.90
24448;DHT22;13348;50.984;5.822;2024-02-21T12:46:21;12.30;99.90
24448;DHT22;13348;50.984;5.822;2024-02-21T12:48:48;12.00;99.90
24448;DHT22;13348;50.984;5.822;2024-02-21T12:51:15;11.90;99.90
24448;DHT22;13348;50.984;5.822;2024-02-21T12:53:46;12.00;99.90
24448;DHT22;13348;50.984;5.822;2024-02-21T12:56:15;11.90;99.90
24448;DHT22;13348;50.984;5.822;2024-02-21T12:58:42;11.60;99.90
24448;DHT22;13348;50.984;5.822;2024-02-21T13:01:10;11.60;99.90
24448;DHT22;13348;50.984;5.822;2024-02-21T13:03:38;11.50;99.90
24448;DHT22;13348;50.984;5.822;2024-02-21T13:06:05;11.40;99.90
24448;DHT22;13348;50.984;5.822;2024-02-21T13:08:36;11.30;99.90
24448;DHT22;13348;50.984;5.822;2024-02-21T13:11:03;11.20;99.90
24448;DHT22;13348;50.984;5.822;2024-02-21T13:13:30;11.20;99.90
24448;DHT22;13348;50.984;5.822;2024-02-21T13:15:57;11.20;99.90
24448;DHT22;13348;50.984;5.822;2024-02-21T13:18:24;11.10;99.90
24448;DHT22;13348;50.984;5.822;2024-02-21T13:20:53;11.10;99.90
24448;DHT22;13348;50.984;5.822;2024-02-21T13:23:20;11.10;99.90
24448;DHT22;13348;50.984;5.822;2024-02-21T13:25:48;11.10;99.90
24448;DHT22;13348;50.984;5.822;2024-02-21T13:28:15;11.10;99.90
24448;DHT22;13348;50.984;5.822;2024-02-21T13:30:41;11.10;99.90
24448;DHT22;13348;50.984;5.822;2024-02-21T13:33:08;11.10;99.90
24448;DHT22;13348;50.984;5.822;2024-02-21T13:35:36;11.20;99.90
24448;DHT22;13348;50.984;5.822;2024-02-21T13:38:05;11.20;99.90
24448;DHT22;13348;50.984;5.822;2024-02-21T13:40:32;11.20;99.90
24448;DHT22;13348;50.984;5.822;2024-02-21T13:42:59;11.20;99.90
24448;DHT22;13348;50.984;5.822;2024-02-21T13:45:26;11.30;99.90
24448;DHT22;13348;50.984;5.822;2024-02-21T13:47:53;11.30;99.90
24448;DHT22;13348;50.984;5.822;2024-02-21T13:50:23;11.40;99.90
24448;DHT22;13348;50.984;5.822;2024-02-21T13:52:50;11.40;99.90
24448;DHT22;13348;50.984;5.822;2024-02-21T13:55:19;11.40;99.90
24448;DHT22;13348;50.984;5.822;2024-02-21T13:57:47;11.40;99.90
24448;DHT22;13348;50.984;5.822;2024-02-21T14:00:15;11.40;99.90
24448;DHT22;13348;50.984;5.822;2024-02-21T14:02:44;11.40;99.90
24448;DHT22;13348;50.984;5.822;2024-02-21T14:05:11;11.40;99.90
24448;DHT22;13348;50.984;5.822;2024-02-21T14:07:40;11.30;99.90
24448;DHT22;13348;50.984;5.822;2024-02-21T14:10:07;11.40;99.90
24448;DHT22;13348;50.984;5.822;2024-02-21T14:12:37;11.30;99.90
24448;DHT22;13348;50.984;5.822;2024-02-21T14:15:06;11.30;99.90
24448;DHT22;13348;50.984;5.822;2024-02-21T14:17:32;11.30;99.90
24448;DHT22;13348;50.984;5.822;2024-02-21T14:19:59;11.30;99.90
24448;DHT22;13348;50.984;5.822;2024-02-21T14:22:26;11.30;99.90
24448;DHT22;13348;50.984;5.822;2024-02-21T14:24:54;11.30;99.90
24448;DHT22;13348;50.984;5.822;2024-02-21T14:27:22;11.30;99.90
24448;DHT22;13348;50.984;5.822;2024-02-21T14:29:50;11.30;99.90
24448;DHT22;13348;50.984;5.822;2024-02-21T14:32:17;11.30;99.90
24448;DHT22;13348;50.984;5.822;2024-02-21T14:34:44;11.30;99.90
24448;DHT22;13348;50.984;5.822;2024-02-21T14:37:11;11.30;99.90
24448;DHT22;13348;50.984;5.822;2024-02-21T14:39:38;11.30;99.90
24448;DHT22;13348;50.984;5.822;2024-02-21T14:42:05;11.20;99.90
24448;DHT22;13348;50.984;5.822;2024-02-21T14:44:35;11.20;99.90
24448;DHT22;13348;50.984;5.822;2024-02-21T14:47:04;11.20;99.90
24448;DHT22;13348;50.984;5.822;2024-02-21T14:49:31;11.20;99.90
24448;DHT22;13348;50.984;5.822;2024-02-21T14:51:58;11.20;99.90
24448;DHT22;13348;50.984;5.822;2024-02-21T14:54:25;11.10;99.90
24448;DHT22;13348;50.984;5.822;2024-02-21T14:56:52;11.10;99.90
24448;DHT22;13348;50.984;5.822;2024-02-21T14:59:19;11.10;99.90
24448;DHT22;13348;50.984;5.822;2024-02-21T15:01:46;11.00;99.90
24448;DHT22;13348;50.984;5.822;2024-02-21T15:04:15;11.00;99.90
24448;DHT22;13348;50.984;5.822;2024-02-21T15:06:42;10.80;99.90
24448;DHT22;13348;50.984;5.822;2024-02-21T15:09:10;10.60;99.90
24448;DHT22;13348;50.984;5.822;2024-02-21T15:11:37;10.50;99.90
24448;DHT22;13348;50.984;5.822;2024-02-21T15:14:04;10.40;99.90
24448;DHT22;13348;50.984;5.822;2024-02-21T15:16:31;10.40;99.90
24448;DHT22;13348;50.984;5.822;2024-02-21T15:18:59;10.30;99.90
24448;DHT22;13348;50.984;5.822;2024-02-21T15:21:27;10.20;99.90
24448;DHT22;13348;50.984;5.822;2024-02-21T15:23:54;10.10;99.90
24448;DHT22;13348;50.984;5.822;2024-02-21T15:26:21;10.00;99.90
24448;DHT22;13348;50.984;5.822;2024-02-21T15:28:49;9.80;99.90
24448;DHT22;13348;50.984;5.822;2024-02-21T15:31:20;9.70;99.90
24448;DHT22;13348;50.984;5.822;2024-02-21T15:33:48;9.70;99.90
24448;DHT22;13348;50.984;5.822;2024-02-21T15:36:15;9.60;99.90
24448;DHT22;13348;50.984;5.822;2024-02-21T15:38:46;9.60;99.90
24448;DHT22;13348;50.984;5.822;2024-02-21T15:41:14;9.50;99.90
24448;DHT22;13348;50.984;5.822;2024-02-21T15:43:41;9.40;99.90